Time;durP1;ratioP1;P1;durP2;ratioP2;P2;SDS_P1;SDS_P2;PMS_P1;PMS_P2;Temp;Humidity;BMP_temperature;BMP_pressure;BME280_temperature;BME280_humidity;BME280_pressure;Samples;Min_cycle;Max_cycle;Signal;HPM_P1;HPM_P2
2021/11/09 00:00:26;;;;;;;;;43.75;40.00;13.40;65.60;;;;;;5042093;28;8805;-59
2021/11/09 00:02:53;;;;;;;;;38.67;36.67;13.10;66.60;;;;;;5045330;28;8829;-60
2021/11/09 00:05:22;;;;;;;;;52.50;45.00;13.30;66.90;;;;;;5040600;28;8790;-60
2021/11/09 00:07:54;;;;;;;;;54.25;46.25;13.10;67.20;;;;;;5043001;28;8789;-60
2021/11/09 00:10:21;;;;;;;;;59.00;49.00;13.10;67.70;;;;;;5034159;28;9420;-59
2021/11/09 00:12:51;;;;;;;;;56.50;48.50;13.40;66.80;;;;;;5044960;28;8802;-58
2021/11/09 00:15:20;;;;;;;;;55.75;47.50;13.20;66.80;;;;;;5045253;28;8879;-57
2021/11/09 00:17:48;;;;;;;;;57.75;48.25;13.20;66.80;;;;;;5044123;28;8800;-59
2021/11/09 00:20:17;;;;;;;;;55.25;47.00;13.30;66.80;;;;;;5045443;28;8788;-59
2021/11/09 00:22:43;;;;;;;;;62.25;52.25;13.30;66.80;;;;;;5048710;28;8786;-60
2021/11/09 00:25:10;;;;;;;;;58.75;49.75;13.30;66.90;;;;;;5042760;28;8782;-59
2021/11/09 00:27:37;;;;;;;;;48.25;42.25;13.20;66.60;;;;;;5039459;28;8853;-59
2021/11/09 00:30:05;;;;;;;;;36.50;35.50;13.30;65.70;;;;;;5039020;28;8790;-59
2021/11/09 00:32:31;;;;;;;;;46.50;40.75;13.20;66.30;;;;;;5033554;28;8850;-59
2021/11/09 00:34:57;;;;;;;;;41.50;37.50;13.10;66.10;;;;;;5033765;28;8794;-58
2021/11/09 00:37:22;;;;;;;;;54.00;45.50;12.90;66.90;;;;;;5034037;28;8881;-60
2021/11/09 00:39:48;;;;;;;;;61.25;51.25;13.20;66.70;;;;;;5035680;28;9494;-59
2021/11/09 00:42:14;;;;;;;;;62.50;52.00;13.20;66.20;;;;;;5037595;28;8896;-59
2021/11/09 00:44:41;;;;;;;;;70.00;57.50;13.20;66.70;;;;;;5037500;28;8778;-58
2021/11/09 00:47:07;;;;;;;;;73.50;60.25;13.30;66.20;;;;;;5037482;28;8770;-59
2021/11/09 00:49:34;;;;;;;;;73.00;59.75;13.30;66.00;;;;;;5037138;28;8791;-59
2021/11/09 00:52:01;;;;;;;;;79.00;69.00;13.40;66.20;;;;;;5037270;28;8810;-58
2021/11/09 00:54:28;;;;;;;;;77.75;63.00;13.20;66.80;;;;;;5037120;28;8793;-60
2021/11/09 00:56:54;;;;;;;;;77.00;64.50;13.20;66.80;;;;;;5037036;28;8790;-60
2021/11/09 00:59:20;;;;;;;;;76.25;63.00;12.60;68.50;;;;;;5037070;28;8840;-59
2021/11/09 01:01:46;;;;;;;;;75.50;61.25;13.10;67.50;;;;;;5037100;28;8818;-58
2021/11/09 01:04:12;;;;;;;;;71.50;59.00;13.10;67.70;;;;;;5036918;28;8763;-58
2021/11/09 01:06:38;;;;;;;;;68.25;55.50;13.20;67.30;;;;;;5036925;28;8772;-60
2021/11/09 01:09:05;;;;;;;;;63.00;53.00;13.40;66.40;;;;;;5036819;28;8933;-59
2021/11/09 01:11:31;;;;;;;;;68.50;56.25;13.40;65.90;;;;;;5036730;28;8809;-60
2021/11/09 01:13:57;;;;;;;;;64.75;53.50;13.30;66.30;;;;;;5037030;28;9463;-58
2021/11/09 01:16:23;;;;;;;;;59.25;50.25;12.80;67.50;;;;;;5036660;28;8793;-59
2021/11/09 01:18:53;;;;;;;;;55.00;45.75;12.80;67.80;;;;;;5036918;28;8763;-58
2021/11/09 01:21:20;;;;;;;;;64.75;54.00;13.20;66.80;;;;;;5036644;28;8911;-58
2021/11/09 01:23:49;;;;;;;;;70.00;57.75;12.80;67.30;;;;;;5036865;28;8770;-59
2021/11/09 01:26:16;;;;;;;;;70.00;58.00;12.60;68.50;;;;;;5036784;28;8765;-58
2021/11/09 01:28:45;;;;;;;;;76.00;61.75;12.90;68.30;;;;;;5036499;28;8865;-58
2021/11/09 01:31:11;;;;;;;;;62.75;52.00;13.20;67.40;;;;;;5036364;28;8833;-57
2021/11/09 01:33:38;;;;;;;;;53.00;45.00;12.50;68.70;;;;;;5036366;28;8786;-59
2021/11/09 01:36:04;;;;;;;;;53.75;46.00;12.20;69.30;;;;;;5036351;28;8810;-60
2021/11/09 01:38:30;;;;;;;;;47.00;41.25;12.10;69.50;;;;;;5036338;28;8784;-60
2021/11/09 01:40:56;;;;;;;;;43.25;39.25;12.60;68.90;;;;;;5036546;28;8881;-60
2021/11/09 01:43:24;;;;;;;;;46.25;40.25;12.70;68.40;;;;;;5036257;28;8781;-62
2021/11/09 01:45:50;;;;;;;;;40.50;36.75;12.60;68.30;;;;;;5036466;28;8891;-60
2021/11/09 01:48:17;;;;;;;;;42.00;38.75;12.50;69.10;;;;;;5036453;28;8778;-62
2021/11/09 01:50:48;;;;;;;;;28.67;28.67;12.50;69.10;;;;;;5035895;28;8790;-59
2021/11/09 01:53:15;;;;;;;;;42.25;38.75;12.30;70.00;;;;;;5036065;28;8893;-60
2021/11/09 01:55:42;;;;;;;;;35.00;34.00;12.40;69.80;;;;;;5036289;28;8755;-60
2021/11/09 01:58:11;;;;;;;;;37.33;34.33;12.30;69.50;;;;;;5036028;28;8774;-59
2021/11/09 02:00:43;;;;;;;;;36.75;35.75;12.30;69.40;;;;;;5035761;28;8766;-59
2021/11/09 02:03:09;;;;;;;;;40.33;37.33;12.00;70.70;;;;;;5036186;28;8782;-59
2021/11/09 02:05:35;;;;;;;;;39.00;36.75;12.30;70.10;;;;;;5035823;28;9428;-61
2021/11/09 02:08:03;;;;;;;;;39.75;37.00;12.50;69.10;;;;;;5036032;28;9467;-60
2021/11/09 02:10:33;;;;;;;;;44.50;40.00;12.30;69.60;;;;;;5035707;28;8778;-61
2021/11/09 02:13:00;;;;;;;;;40.75;37.00;12.20;70.80;;;;;;5033906;28;8805;-59
2021/11/09 02:15:30;;;;;;;;;30.50;30.00;12.30;70.50;;;;;;5018492;28;8780;-58
2021/11/09 02:17:57;;;;;;;;;37.50;35.50;12.20;70.80;;;;;;5035611;28;8770;-60
2021/11/09 02:20:26;;;;;;;;;34.00;33.00;12.00;71.80;;;;;;5035774;28;8762;-59
2021/11/09 02:22:52;;;;;;;;;37.25;36.25;12.40;71.10;;;;;;5035690;28;8778;-60
2021/11/09 02:25:20;;;;;;;;;43.25;39.25;11.90;72.40;;;;;;5035395;28;8758;-59
2021/11/09 02:27:47;;;;;;;;;32.00;32.00;11.90;72.50;;;;;;5035658;28;8770;-59
2021/11/09 02:30:16;;;;;;;;;33.25;32.75;11.40;75.10;;;;;;5035342;28;8782;-60
2021/11/09 02:32:42;;;;;;;;;43.67;40.33;11.40;74.70;;;;;;5034867;28;8848;-62
2021/11/09 02:35:10;;;;;;;;;42.50;38.75;11.90;73.40;;;;;;5035487;28;8771;-60
2021/11/09 02:37:36;;;;;;;;;46.00;42.00;12.40;71.80;;;;;;5035205;28;8880;-60
2021/11/09 02:40:04;;;;;;;;;48.25;42.00;12.90;70.00;;;;;;5018024;28;8809;-61
2021/11/09 02:42:37;;;;;;;;;52.50;45.00;13.00;69.10;;;;;;5035114;28;8774;-58
2021/11/09 02:45:27;;;;;;;;;51.75;44.00;13.10;68.80;;;;;;5034957;28;8793;-58
2021/11/09 02:50:47;;;;;;;;;44.00;39.75;13.30;67.80;;;;;;5035077;28;8747;-62
2021/11/09 02:53:59;;;;;;;;;51.25;44.00;13.10;68.70;;;;;;5034875;28;8809;-60
2021/11/09 02:56:11;;;;;;;;;46.00;41.25;13.00;68.80;;;;;;5026814;28;8797;-59
2021/11/09 03:01:16;;;;;;;;;51.00;43.50;12.90;69.00;;;;;;5034873;28;8790;-59
2021/11/09 03:11:32;;;;;;;;;46.25;40.50;12.50;70.30;;;;;;5034680;28;8794;-58
2021/11/09 03:13:59;;;;;;;;;48.50;41.75;12.60;69.90;;;;;;5034885;28;9400;-58
2021/11/09 03:16:28;;;;;;;;;47.50;42.00;12.90;69.00;;;;;;5034568;28;8767;-57
2021/11/09 03:19:03;;;;;;;;;48.50;42.00;13.00;68.80;;;;;;5034512;28;8794;-60
2021/11/09 03:44:11;;;;;;;;;39.00;37.33;12.60;70.10;;;;;;5034424;28;8746;-59
2021/11/09 03:46:18;;;;;;;;;40.25;36.75;13.10;69.10;;;;;;5034387;28;8758;-61
2021/11/09 03:48:44;;;;;;;;;42.25;38.75;13.30;67.90;;;;;;5016738;28;8879;-58
2021/11/09 03:51:10;;;;;;;;;42.50;39.50;13.20;67.80;;;;;;5034112;28;8770;-58
2021/11/09 03:53:37;;;;;;;;;40.75;37.75;13.20;67.90;;;;;;5034175;28;8850;-59
2021/11/09 03:56:25;;;;;;;;;39.75;37.75;13.30;67.70;;;;;;5034415;28;9518;-58
2021/11/09 03:58:52;;;;;;;;;40.00;36.75;13.30;67.70;;;;;;5034139;28;8766;-59
2021/11/09 04:01:22;;;;;;;;;40.25;37.25;13.40;67.50;;;;;;5034349;28;8802;-58
2021/11/09 04:04:06;;;;;;;;;49.00;43.50;13.30;67.70;;;;;;5034071;28;8794;-60
2021/11/09 04:09:10;;;;;;;;;44.75;41.00;13.60;67.20;;;;;;5034275;28;8755;-60
2021/11/09 04:11:48;;;;;;;;;44.00;40.50;13.50;67.50;;;;;;5033953;28;8813;-58
2021/11/09 04:14:43;;;;;;;;;43.25;39.25;13.40;67.60;;;;;;5035445;28;9436;-59
2021/11/09 04:30:43;;;;;;;;;47.50;41.25;12.60;70.10;;;;;;4919196;29;8795;-59
2021/11/09 05:02:59;;;;;;;;;49.00;43.00;12.30;70.10;;;;;;4925788;29;8821;-59
2021/11/09 05:08:23;;;;;;;;;43.50;39.25;11.90;71.20;;;;;;4937649;29;8745;-60
2021/11/09 05:10:49;;;;;;;;;44.00;39.25;11.90;71.70;;;;;;4937362;29;9511;-58
2021/11/09 05:13:15;;;;;;;;;42.25;38.75;12.20;70.70;;;;;;4937410;29;8812;-60
2021/11/09 05:15:43;;;;;;;;;42.75;39.25;12.50;69.70;;;;;;4937470;29;8761;-57
2021/11/09 05:18:09;;;;;;;;;45.50;40.75;12.50;69.00;;;;;;4937405;29;8789;-59
2021/11/09 05:20:35;;;;;;;;;53.50;46.00;12.50;69.20;;;;;;4937369;29;8788;-58
2021/11/09 05:23:00;;;;;;;;;52.50;45.00;12.40;69.50;;;;;;5002048;28;9462;-60
2021/11/09 05:25:27;;;;;;;;;40.25;37.75;12.40;69.80;;;;;;5036608;28;8754;-60
2021/11/09 05:27:54;;;;;;;;;54.75;46.00;12.50;69.20;;;;;;5036828;28;9541;-59
2021/11/09 05:30:21;;;;;;;;;44.50;40.25;12.30;69.30;;;;;;5036760;28;8766;-59
2021/11/09 05:32:49;;;;;;;;;41.75;38.25;12.40;69.50;;;;;;5036206;28;8826;-58
2021/11/09 05:35:15;;;;;;;;;45.25;40.75;12.40;68.80;;;;;;5036648;28;8762;-60
2021/11/09 05:37:45;;;;;;;;;52.00;45.25;12.30;69.10;;;;;;5036355;28;9680;-58
2021/11/09 05:40:12;;;;;;;;;48.75;42.00;12.00;70.10;;;;;;5046691;28;8823;-58
2021/11/09 05:42:38;;;;;;;;;44.50;40.25;12.10;69.60;;;;;;5036523;28;8855;-60
2021/11/09 05:45:07;;;;;;;;;47.00;41.75;12.30;68.70;;;;;;5036202;28;8816;-58
2021/11/09 05:47:33;;;;;;;;;38.50;36.50;12.50;67.90;;;;;;5036446;28;8801;-59
2021/11/09 05:49:58;;;;;;;;;37.75;36.00;12.50;68.10;;;;;;5035945;28;8787;-59
2021/11/09 05:52:24;;;;;;;;;43.00;39.25;12.30;68.30;;;;;;5035980;28;8806;-61
2021/11/09 05:54:50;;;;;;;;;44.00;39.50;12.20;68.60;;;;;;5035939;28;8758;-59
2021/11/09 05:57:16;;;;;;;;;48.75;43.25;12.20;68.70;;;;;;5035936;28;8766;-60
2021/11/09 05:59:42;;;;;;;;;53.00;45.75;12.00;69.40;;;;;;5035866;28;8860;-59
2021/11/09 06:02:08;;;;;;;;;30.75;30.50;11.90;69.60;;;;;;5018441;28;8802;-59
2021/11/09 06:04:34;;;;;;;;;42.00;39.00;12.20;69.40;;;;;;5035721;28;8869;-58
2021/11/09 06:06:59;;;;;;;;;45.00;40.00;12.30;68.60;;;;;;5035628;28;8762;-60
2021/11/09 06:09:25;;;;;;;;;49.00;43.00;12.30;68.40;;;;;;5035666;28;8766;-59
2021/11/09 06:11:51;;;;;;;;;24.00;23.75;12.30;68.80;;;;;;5035871;28;8842;-59
2021/11/09 06:14:17;;;;;;;;;49.75;43.25;12.10;68.70;;;;;;5035863;28;8841;-60
2021/11/09 06:16:43;;;;;;;;;52.50;45.25;12.10;69.10;;;;;;5035753;28;8767;-60
2021/11/09 06:19:08;;;;;;;;;53.75;45.50;12.20;68.90;;;;;;5035453;28;8816;-60
2021/11/09 06:21:34;;;;;;;;;46.00;41.00;12.50;67.90;;;;;;5035476;28;8781;-59
2021/11/09 06:24:01;;;;;;;;;58.50;50.00;12.50;68.30;;;;;;5035660;28;8754;-59
2021/11/09 06:26:26;;;;;;;;;51.75;44.00;12.50;68.20;;;;;;5035444;28;8772;-59
2021/11/09 06:28:57;;;;;;;;;60.75;51.00;12.50;68.20;;;;;;5035451;28;8873;-59
2021/11/09 06:31:24;;;;;;;;;58.25;49.00;12.50;67.90;;;;;;5034966;28;8902;-60
2021/11/09 06:33:50;;;;;;;;;56.00;48.00;12.50;68.20;;;;;;5035209;28;8758;-58
2021/11/09 06:36:15;;;;;;;;;57.00;49.50;12.50;68.70;;;;;;5034758;28;8778;-58
2021/11/09 06:38:42;;;;;;;;;45.25;41.00;12.40;68.70;;;;;;5035036;28;8778;-59
2021/11/09 06:41:08;;;;;;;;;50.75;43.50;12.50;68.50;;;;;;5035448;28;8793;-60
2021/11/09 06:43:33;;;;;;;;;51.75;44.50;12.70;67.60;;;;;;5035099;28;9445;-60
2021/11/09 06:45:59;;;;;;;;;52.50;45.00;13.00;66.80;;;;;;5034954;28;8782;-59
2021/11/09 06:48:26;;;;;;;;;54.75;47.25;12.90;67.20;;;;;;5034914;28;8885;-60
2021/11/09 06:50:53;;;;;;;;;59.00;49.00;13.00;66.40;;;;;;5034991;28;8789;-59
2021/11/09 06:53:19;;;;;;;;;57.75;48.25;13.00;66.60;;;;;;5034857;28;8801;-59
2021/11/09 06:55:46;;;;;;;;;59.00;50.00;12.70;67.40;;;;;;5035021;28;8805;-59
2021/11/09 06:58:12;;;;;;;;;51.50;44.50;12.80;67.60;;;;;;5035030;28;8758;-60
2021/11/09 07:00:38;;;;;;;;;58.00;50.00;12.70;67.30;;;;;;5034633;28;8773;-59
2021/11/09 07:03:04;;;;;;;;;59.50;49.75;12.70;68.40;;;;;;5034582;28;8828;-59
2021/11/09 07:05:30;;;;;;;;;58.25;49.25;12.60;68.10;;;;;;5034760;28;8770;-60
2021/11/09 07:07:56;;;;;;;;;47.00;41.25;12.70;67.90;;;;;;5034678;28;8882;-60
2021/11/09 07:10:23;;;;;;;;;47.00;41.25;12.90;67.20;;;;;;5017600;28;8790;-60
2021/11/09 07:12:48;;;;;;;;;44.50;40.25;12.90;67.00;;;;;;5034462;28;8813;-59
2021/11/09 07:15:17;;;;;;;;;44.00;38.75;12.60;68.00;;;;;;5034503;28;8770;-59
2021/11/09 07:17:44;;;;;;;;;44.00;39.75;12.70;68.80;;;;;;5034438;28;8774;-58
2021/11/09 07:20:15;;;;;;;;;38.50;36.50;12.80;67.50;;;;;;5034207;28;8885;-58
2021/11/09 07:22:41;;;;;;;;;44.00;39.00;13.00;66.90;;;;;;5034776;28;8963;-59
2021/11/09 07:25:09;;;;;;;;;42.00;39.00;12.70;67.50;;;;;;5035057;28;8758;-67
2021/11/09 07:27:35;;;;;;;;;41.25;37.50;12.20;68.70;;;;;;5054133;28;8783;-66
2021/11/09 07:30:04;;;;;;;;;42.00;38.00;11.90;70.00;;;;;;5054339;28;8752;-65
2021/11/09 07:32:30;;;;;;;;;40.75;37.50;11.90;70.20;;;;;;5054012;28;8871;-65
2021/11/09 07:34:56;;;;;;;;;42.00;38.00;12.00;70.20;;;;;;5053974;28;8776;-64
2021/11/09 07:37:22;;;;;;;;;51.50;44.50;11.90;70.60;;;;;;5054166;28;8858;-65
2021/11/09 07:39:49;;;;;;;;;44.25;40.25;12.20;69.90;;;;;;5054432;28;8845;-64
2021/11/09 07:42:15;;;;;;;;;43.25;39.25;12.10;70.10;;;;;;5054351;28;8778;-66
2021/11/09 07:44:42;;;;;;;;;49.50;42.75;12.00;71.10;;;;;;5054226;28;8733;-65
2021/11/09 07:47:08;;;;;;;;;49.75;42.50;12.20;69.50;;;;;;5054322;28;8918;-67
2021/11/09 07:49:34;;;;;;;;;44.75;40.75;12.50;69.10;;;;;;5057943;28;9811;-65
2021/11/09 07:52:00;;;;;;;;;39.75;38.00;12.30;69.40;;;;;;5057824;28;8816;-66
2021/11/09 07:54:33;;;;;;;;;55.25;47.25;12.60;68.50;;;;;;5051759;28;9452;-67
2021/11/09 07:57:07;;;;;;;;;50.00;42.00;12.60;68.80;;;;;;5049743;28;9472;-63
2021/11/09 08:02:07;;;;;;;;;47.50;41.50;12.30;69.10;;;;;;5056987;28;8797;-62
2021/11/09 08:04:50;;;;;;;;;50.75;43.75;12.30;68.90;;;;;;5038749;28;8768;-65
2021/11/09 08:09:41;;;;;;;;;42.75;39.50;12.30;69.20;;;;;;5056623;28;8776;-67
2021/11/09 08:12:08;;;;;;;;;45.00;39.25;12.30;69.30;;;;;;5056609;28;8801;-69
2021/11/09 08:14:34;;;;;;;;;41.75;37.75;12.00;70.20;;;;;;5056582;28;9539;-65
2021/11/09 08:17:01;;;;;;;;;42.50;39.50;11.80;70.90;;;;;;5056587;28;8825;-65
2021/11/09 08:19:27;;;;;;;;;42.25;38.75;11.60;71.80;;;;;;5056651;28;8756;-65
2021/11/09 08:21:56;;;;;;;;;40.25;37.75;11.90;71.30;;;;;;5056444;28;8933;-65
2021/11/09 08:24:24;;;;;;;;;46.50;41.25;11.90;71.10;;;;;;5056098;28;8767;-63
2021/11/09 08:26:51;;;;;;;;;43.25;39.00;12.10;70.90;;;;;;5056553;28;8767;-65
2021/11/09 08:29:21;;;;;;;;;39.50;38.00;12.00;70.60;;;;;;5056704;28;8749;-66
2021/11/09 08:31:47;;;;;;;;;55.75;47.75;12.00;70.70;;;;;;5057259;28;9001;-64
2021/11/09 08:34:15;;;;;;;;;56.75;48.50;11.90;70.80;;;;;;5057424;28;8891;-64
2021/11/09 08:36:44;;;;;;;;;52.00;44.75;12.10;71.00;;;;;;5057729;28;8757;-66
2021/11/09 08:39:12;;;;;;;;;54.00;46.25;12.00;71.10;;;;;;5057344;28;8752;-65
2021/11/09 08:41:42;;;;;;;;;51.75;44.75;12.20;70.60;;;;;;5056921;28;8783;-65
2021/11/09 08:44:16;;;;;;;;;55.00;47.00;12.50;69.80;;;;;;5056869;28;8898;-64
2021/11/09 08:46:47;;;;;;;;;52.75;44.75;12.20;70.10;;;;;;5057285;28;8798;-64
2021/11/09 08:49:14;;;;;;;;;52.00;44.25;12.30;70.60;;;;;;5057252;28;8791;-64
2021/11/09 08:51:41;;;;;;;;;38.75;37.25;12.30;70.30;;;;;;5057111;28;8776;-63
2021/11/09 08:56:54;;;;;;;;;41.00;38.00;12.00;70.90;;;;;;5057138;28;8737;-64
2021/11/09 09:04:51;;;;;;;;;55.00;46.50;12.30;71.40;;;;;;5056631;28;8772;-65
2021/11/09 09:07:17;;;;;;;;;55.50;47.25;12.20;70.60;;;;;;5056895;28;8764;-65
2021/11/09 09:09:44;;;;;;;;;55.00;46.75;12.10;71.50;;;;;;5056746;28;8791;-64
2021/11/09 09:12:10;;;;;;;;;40.25;37.00;11.80;72.70;;;;;;5022610;28;8800;-64
2021/11/09 09:14:36;;;;;;;;;48.25;41.25;11.80;72.30;;;;;;5056337;28;8776;-62
2021/11/09 09:17:02;;;;;;;;;43.00;39.00;11.70;72.80;;;;;;5045310;28;8880;-63
2021/11/09 09:20:15;;;;;;;;;38.00;37.33;11.90;72.10;;;;;;5045511;28;8810;-66
2021/11/09 09:22:21;;;;;;;;;38.00;36.00;11.70;72.70;;;;;;5044899;28;8776;-65
2021/11/09 09:29:58;;;;;;;;;32.67;32.33;12.40;70.30;;;;;;5053139;28;8740;-61
2021/11/09 09:56:59;;;;;;;;;56.00;48.00;12.90;69.10;;;;;;5053821;28;9434;-60
2021/11/09 09:59:31;;;;;;;;;56.75;48.50;12.90;68.60;;;;;;5051895;28;8854;-63
2021/11/09 10:02:25;;;;;;;;;55.75;47.00;12.90;69.00;;;;;;5051395;28;8785;-62
2021/11/09 10:05:07;;;;;;;;;53.50;45.50;13.00;69.10;;;;;;5055233;28;8780;-60
2021/11/09 10:07:38;;;;;;;;;35.50;34.25;13.20;67.80;;;;;;5055490;28;9438;-66
2021/11/09 10:10:22;;;;;;;;;44.50;40.50;12.30;70.80;;;;;;5055467;28;8808;-67
2021/11/09 10:12:58;;;;;;;;;41.75;38.25;12.30;71.90;;;;;;5054606;28;8803;-61
2021/11/09 10:15:29;;;;;;;;;47.00;41.00;12.20;72.00;;;;;;5055636;28;9434;-67
2021/11/09 10:18:05;;;;;;;;;50.50;44.25;12.30;71.30;;;;;;5055563;28;8906;-62
2021/11/09 10:20:42;;;;;;;;;53.25;46.25;12.30;71.10;;;;;;5055366;28;8787;-62
2021/11/09 10:23:16;;;;;;;;;40.25;36.50;12.80;70.40;;;;;;5050865;28;8779;-64
2021/11/09 10:25:43;;;;;;;;;46.00;40.00;13.00;69.30;;;;;;5036090;28;8781;-63
2021/11/09 10:28:22;;;;;;;;;43.25;38.50;12.90;69.90;;;;;;5037639;28;8776;-64
2021/11/09 10:30:52;;;;;;;;;50.25;44.00;13.00;68.40;;;;;;5055107;28;8786;-62
2021/11/09 10:33:20;;;;;;;;;34.50;33.50;13.10;68.70;;;;;;5055480;28;9568;-60
2021/11/09 10:35:47;;;;;;;;;40.25;36.75;13.00;68.40;;;;;;5039452;28;8778;-64
2021/11/09 10:38:13;;;;;;;;;40.25;36.50;12.70;69.30;;;;;;5035299;28;8765;-72
2021/11/09 10:40:51;;;;;;;;;38.75;36.00;12.60;69.50;;;;;;5035215;28;8773;-66
2021/11/09 10:43:21;;;;;;;;;36.00;35.00;12.50;69.60;;;;;;5046568;28;8768;-66
2021/11/09 10:45:48;;;;;;;;;40.50;37.25;12.50;69.00;;;;;;5046320;28;8740;-66
2021/11/09 10:48:19;;;;;;;;;37.00;35.25;12.20;70.60;;;;;;5038743;28;8786;-65
2021/11/09 10:50:48;;;;;;;;;33.67;33.00;12.40;69.80;;;;;;5041834;28;8783;-66
2021/11/09 11:04:09;;;;;;;;;43.00;39.00;13.10;67.40;;;;;;4969336;28;8777;-63
2021/11/09 11:06:44;;;;;;;;;44.50;39.25;12.80;67.70;;;;;;4969457;28;8793;-66
2021/11/09 11:09:10;;;;;;;;;48.50;43.00;12.70;68.40;;;;;;4956308;28;8793;-68
2021/11/09 11:11:44;;;;;;;;;53.75;46.75;13.10;67.60;;;;;;4971877;28;8899;-67
2021/11/09 11:14:17;;;;;;;;;51.50;44.50;13.00;68.20;;;;;;4973841;28;8764;-64
2021/11/09 11:16:47;;;;;;;;;49.25;43.25;13.00;67.10;;;;;;4973741;28;8966;-68
2021/11/09 11:19:27;;;;;;;;;50.50;43.50;12.90;68.50;;;;;;4973743;28;8764;-67
2021/11/09 11:21:53;;;;;;;;;48.75;41.00;13.40;67.50;;;;;;4970761;28;8804;-64
2021/11/09 11:24:21;;;;;;;;;46.75;40.75;13.40;66.70;;;;;;4964504;28;8805;-64
2021/11/09 11:26:48;;;;;;;;;46.25;41.25;13.60;65.20;;;;;;4954175;28;8794;-66
2021/11/09 11:29:16;;;;;;;;;52.00;44.25;13.30;66.20;;;;;;4958842;28;9443;-64
2021/11/09 11:31:44;;;;;;;;;53.25;45.00;13.40;66.90;;;;;;4962279;28;8858;-65
2021/11/09 11:34:12;;;;;;;;;51.50;44.50;13.70;65.10;;;;;;4965295;28;8932;-66
2021/11/09 11:36:38;;;;;;;;;51.00;44.50;13.60;65.30;;;;;;5045569;28;8788;-65
2021/11/09 11:39:07;;;;;;;;;53.25;45.50;13.80;65.10;;;;;;5052415;28;8910;-66
2021/11/09 11:41:37;;;;;;;;;60.50;50.50;14.00;64.30;;;;;;5053744;28;8772;-64
2021/11/09 11:44:06;;;;;;;;;45.75;40.50;14.00;64.40;;;;;;5054056;28;8756;-68
2021/11/09 11:46:43;;;;;;;;;46.50;40.75;14.20;64.00;;;;;;5042238;28;8771;-62
2021/11/09 11:49:14;;;;;;;;;49.75;42.75;13.50;65.20;;;;;;5040259;28;8786;-63
2021/11/09 11:51:46;;;;;;;;;55.00;45.25;13.40;65.60;;;;;;5034085;28;9527;-61
2021/11/09 11:54:15;;;;;;;;;52.75;45.25;13.20;66.70;;;;;;5034141;28;8778;-62
2021/11/09 11:56:51;;;;;;;;;50.50;43.75;13.40;66.20;;;;;;5051703;28;8770;-64
2021/11/09 11:59:22;;;;;;;;;51.50;43.75;13.80;65.10;;;;;;5042671;28;8884;-63
2021/11/09 12:02:02;;;;;;;;;49.50;42.00;13.50;65.80;;;;;;5034187;28;8836;-65
2021/11/09 12:04:48;;;;;;;;;49.25;42.50;13.30;66.30;;;;;;5036522;28;8806;-62
2021/11/09 12:07:18;;;;;;;;;47.50;42.50;13.30;65.80;;;;;;5046431;28;8865;-62
2021/11/09 12:09:46;;;;;;;;;45.00;40.75;13.10;65.90;;;;;;5045233;28;8921;-62
2021/11/09 12:12:18;;;;;;;;;39.50;36.00;13.50;65.30;;;;;;5043232;28;8804;-63
2021/11/09 12:15:00;;;;;;;;;41.67;37.00;14.00;63.20;;;;;;5047652;28;8816;-63
2021/11/09 12:17:40;;;;;;;;;38.75;36.50;14.10;63.10;;;;;;5038691;28;8863;-64
2021/11/09 12:20:14;;;;;;;;;46.25;40.00;15.00;61.40;;;;;;5040391;28;8782;-63
2021/11/09 12:22:48;;;;;;;;;36.33;34.33;15.90;59.00;;;;;;5033837;28;8778;-64
2021/11/09 12:25:34;;;;;;;;;40.67;37.33;16.10;56.40;;;;;;5043196;28;8772;-62
2021/11/09 12:28:07;;;;;;;;;38.67;36.00;16.20;57.60;;;;;;5044466;28;9429;-62
2021/11/09 12:30:34;;;;;;;;;36.00;34.00;16.50;56.90;;;;;;5041063;28;8775;-63
2021/11/09 12:33:19;;;;;;;;;36.67;34.00;16.90;55.40;;;;;;5042488;28;8805;-63
2021/11/09 12:35:49;;;;;;;;;32.33;32.00;17.50;53.40;;;;;;5038304;28;8931;-62
2021/11/09 12:38:20;;;;;;;;;29.00;29.00;17.80;50.80;;;;;;5047222;28;8927;-60
2021/11/09 12:40:52;;;;;;;;;28.00;28.00;18.00;49.30;;;;;;5044847;28;8780;-64
2021/11/09 12:43:32;;;;;;;;;31.33;30.33;18.20;49.00;;;;;;5050947;28;8786;-67
2021/11/09 12:46:26;;;;;;;;;26.67;26.67;18.50;48.80;;;;;;5047943;28;8786;-64
2021/11/09 12:49:04;;;;;;;;;31.00;30.67;18.40;46.90;;;;;;5046392;28;8794;-67
2021/11/09 12:51:35;;;;;;;;;28.00;28.00;17.50;48.70;;;;;;5045065;28;8803;-66
2021/11/09 12:54:09;;;;;;;;;25.00;25.00;17.60;49.50;;;;;;5044063;28;8798;-64
2021/11/09 12:56:38;;;;;;;;;33.33;32.00;17.80;48.60;;;;;;5043872;28;8859;-67
2021/11/09 12:59:29;;;;;;;;;28.33;28.33;17.90;48.70;;;;;;5045660;28;8780;-68
2021/11/09 13:07:29;;;;;;;;;36.33;35.00;17.80;48.60;;;;;;5047706;28;8794;-67
2021/11/09 13:10:05;;;;;;;;;36.33;33.00;17.90;48.50;;;;;;5039529;28;9508;-68
2021/11/09 13:12:33;;;;;;;;;36.00;33.33;18.30;48.00;;;;;;5045200;28;9487;-65
2021/11/09 13:15:16;;;;;;;;;40.00;36.67;18.80;46.50;;;;;;5048406;28;8833;-70
2021/11/09 13:17:45;;;;;;;;;38.00;35.00;18.70;46.60;;;;;;5045544;28;8782;-64
2021/11/09 13:21:12;;;;;;;;;32.00;30.67;18.10;48.20;;;;;;5040714;28;8805;-65
2021/11/09 13:23:16;;;;;;;;;31.67;30.67;17.40;49.30;;;;;;5039862;28;8910;-65
2021/11/09 13:25:57;;;;;;;;;38.67;35.33;17.10;49.90;;;;;;5043783;28;8782;-68
2021/11/09 13:28:33;;;;;;;;;35.67;34.67;17.40;49.50;;;;;;5047623;28;8772;-69
2021/11/09 13:31:02;;;;;;;;;35.00;32.33;17.00;49.90;;;;;;5045194;28;9499;-66
2021/11/09 13:33:30;;;;;;;;;35.00;33.00;16.80;50.40;;;;;;5044643;28;8937;-66
2021/11/09 13:35:57;;;;;;;;;33.67;32.33;16.70;50.40;;;;;;5029153;28;8796;-67
2021/11/09 13:38:33;;;;;;;;;12.00;12.00;16.80;50.70;;;;;;5044281;28;8794;-66
2021/11/09 13:41:03;;;;;;;;;34.00;32.00;16.80;50.60;;;;;;5036589;28;8842;-67
2021/11/09 13:43:36;;;;;;;;;45.33;40.33;16.80;50.80;;;;;;5036674;28;8779;-65
2021/11/09 13:46:04;;;;;;;;;45.33;40.00;16.50;51.20;;;;;;5044072;28;8899;-65
2021/11/09 13:48:32;;;;;;;;;41.67;37.33;16.30;50.80;;;;;;5045865;28;8794;-65
2021/11/09 13:51:08;;;;;;;;;49.75;42.75;16.10;52.10;;;;;;5035952;28;8863;-66
2021/11/09 13:53:41;;;;;;;;;48.25;41.50;15.90;52.40;;;;;;5047219;28;8876;-68
2021/11/09 13:56:12;;;;;;;;;47.75;40.75;15.40;54.20;;;;;;5018523;28;8888;-67
2021/11/09 13:58:38;;;;;;;;;48.25;41.00;15.30;54.20;;;;;;5051440;28;9515;-69
2021/11/09 14:01:04;;;;;;;;;47.00;40.50;15.60;53.70;;;;;;5044545;28;8796;-64
2021/11/09 14:06:23;;;;;;;;;49.00;42.00;15.60;52.90;;;;;;5045330;28;8760;-67
2021/11/09 14:09:13;;;;;;;;;55.00;47.50;15.70;53.50;;;;;;5047155;28;8858;-67
2021/11/09 14:14:32;;;;;;;;;66.75;55.25;15.00;57.90;;;;;;5040140;28;8845;-68
2021/11/09 14:16:57;;;;;;;;;69.00;56.25;15.10;56.70;;;;;;5043301;28;8808;-67
2021/11/09 14:19:36;;;;;;;;;52.25;45.25;14.90;57.30;;;;;;5055149;28;8796;-70
2021/11/09 14:22:18;;;;;;;;;51.50;45.00;14.50;58.40;;;;;;5046591;28;8867;-67
2021/11/09 14:25:02;;;;;;;;;47.00;41.75;14.70;58.00;;;;;;5035878;28;8771;-68
2021/11/09 14:27:36;;;;;;;;;45.25;39.50;14.60;57.80;;;;;;5035512;28;8794;-71
2021/11/09 14:30:06;;;;;;;;;57.25;48.25;14.70;58.30;;;;;;5035663;28;9237;-69
2021/11/09 14:32:36;;;;;;;;;60.00;50.00;14.70;58.50;;;;;;5032501;28;9482;-67
2021/11/09 14:38:05;;;;;;;;;53.50;45.50;14.50;58.80;;;;;;5041572;28;9437;-68
2021/11/09 14:40:33;;;;;;;;;51.75;44.50;14.80;57.70;;;;;;5052999;28;8772;-68
2021/11/09 14:43:26;;;;;;;;;54.00;46.00;15.00;57.30;;;;;;5042422;28;8867;-70
2021/11/09 14:46:02;;;;;;;;;65.00;53.50;14.70;57.70;;;;;;5053313;28;8788;-70
2021/11/09 14:48:37;;;;;;;;;72.75;59.00;14.70;58.10;;;;;;5041165;28;8832;-68
2021/11/09 14:51:29;;;;;;;;;72.00;59.50;14.40;59.30;;;;;;5055179;28;8776;-70
2021/11/09 14:56:30;;;;;;;;;77.75;68.25;13.70;62.20;;;;;;5055000;28;8817;-69
2021/11/09 14:59:03;;;;;;;;;86.00;81.00;14.00;61.50;;;;;;5039224;28;8864;-71
2021/11/09 15:01:36;;;;;;;;;80.25;70.75;14.30;60.60;;;;;;5035270;28;8912;-71
2021/11/09 15:04:03;;;;;;;;;79.25;70.50;14.70;59.80;;;;;;5055011;28;8792;-74
2021/11/09 15:30:49;;;;;;;;;87.00;83.00;14.30;60.80;;;;;;5043278;28;8751;-71
2021/11/09 15:36:05;;;;;;;;;93.00;91.25;14.30;60.90;;;;;;5040225;28;8788;-70
2021/11/09 15:38:31;;;;;;;;;91.50;89.75;14.20;61.30;;;;;;5039907;28;8778;-65
2021/11/09 15:40:58;;;;;;;;;98.75;97.75;14.10;61.40;;;;;;5040306;28;8776;-67
2021/11/09 15:43:24;;;;;;;;;137.00;129.00;13.80;62.00;;;;;;5054463;28;9410;-71
2021/11/09 15:45:53;;;;;;;;;145.50;140.25;13.80;62.20;;;;;;5054386;28;9611;-74
2021/11/09 15:48:19;;;;;;;;;170.50;165.75;14.00;61.70;;;;;;5054405;28;8802;-59
2021/11/09 15:50:45;;;;;;;;;194.50;186.00;14.10;61.60;;;;;;5047361;28;8908;-59